Time;durP1;ratioP1;P1;durP2;ratioP2;P2;SDS_P1;SDS_P2;PMS_P1;PMS_P2;Temp;Humidity;BMP_temperature;BMP_pressure;BME280_temperature;BME280_humidity;BME280_pressure;Samples;Min_cycle;Max_cycle;Signal;HPM_P1;HPM_P2
2024/01/27 00:03:16;;;;;;;11.07;2.70;;;;;;;;;;10444171;28;20246;-84
2024/01/27 00:08:21;;;;;;;4.27;2.37;;;;;;;;;;10443611;28;20289;-85
2024/01/27 00:13:23;;;;;;;4.30;2.27;;;;;;;;;;10448264;28;20697;-86
2024/01/27 00:18:26;;;;;;;5.87;2.67;;;;;;;;;;10445968;28;20226;-85
2024/01/27 00:23:30;;;;;;;8.33;2.80;;;;;;;;;;10446997;28;20276;-85
2024/01/27 00:28:32;;;;;;;3.90;2.00;;;;;;;;;;10448626;28;20225;-87
2024/01/27 00:33:36;;;;;;;4.83;2.53;;;;;;;;;;10431316;28;20282;-85
2024/01/27 00:38:39;;;;;;;4.93;1.90;;;;;;;;;;10448615;28;20719;-87
2024/01/27 00:43:41;;;;;;;7.27;2.80;;;;;;;;;;10447179;28;20251;-87
2024/01/27 00:48:44;;;;;;;4.60;1.67;;;;;;;;;;10448986;28;20222;-87
2024/01/27 00:53:47;;;;;;;8.23;2.40;;;;;;;;;;10455259;28;20268;-87
2024/01/27 00:58:50;;;;;;;3.63;1.53;;;;;;;;;;10457070;28;20844;-86
2024/01/27 01:03:53;;;;;;;3.60;1.80;;;;;;;;;;10455547;28;20246;-87
2024/01/27 01:08:56;;;;;;;4.80;2.03;;;;;;;;;;10456899;28;20692;-87
2024/01/27 01:13:59;;;;;;;8.03;1.83;;;;;;;;;;10456704;28;20226;-87
2024/01/27 01:19:01;;;;;;;6.37;1.47;;;;;;;;;;10456819;28;20246;-87
2024/01/27 01:24:05;;;;;;;3.30;1.43;;;;;;;;;;10456464;28;20765;-87
2024/01/27 01:29:08;;;;;;;3.33;1.63;;;;;;;;;;10454704;28;20219;-87
2024/01/27 01:34:10;;;;;;;5.57;1.63;;;;;;;;;;10473870;28;20235;-88
2024/01/27 01:39:13;;;;;;;3.80;2.27;;;;;;;;;;10454594;28;20227;-86
2024/01/27 01:44:16;;;;;;;3.83;1.83;;;;;;;;;;10455191;28;20254;-88
2024/01/27 01:49:19;;;;;;;3.80;1.97;;;;;;;;;;10455827;28;20238;-87
2024/01/27 01:54:27;;;;;;;4.80;1.50;;;;;;;;;;10454844;28;20235;-87
2024/01/27 01:59:30;;;;;;;2.67;1.37;;;;;;;;;;10455097;28;20670;-87
2024/01/27 02:04:42;;;;;;;0.93;0.87;;;;;;;;;;10453492;28;20258;-87
2024/01/27 02:09:45;;;;;;;4.73;1.90;;;;;;;;;;10454312;28;20231;-87
2024/01/27 02:14:48;;;;;;;5.80;1.63;;;;;;;;;;10454037;28;20223;-87
2024/01/27 02:19:51;;;;;;;2.67;1.43;;;;;;;;;;10453768;28;20619;-85
2024/01/27 02:24:54;;;;;;;7.33;2.47;;;;;;;;;;10453381;28;20285;-87
2024/01/27 02:29:57;;;;;;;3.77;1.03;;;;;;;;;;10452747;28;20207;-87
2024/01/27 02:35:00;;;;;;;6.00;1.10;;;;;;;;;;10453060;28;20289;-87
2024/01/27 02:40:03;;;;;;;2.93;1.23;;;;;;;;;;10453603;28;20244;-87
2024/01/27 02:45:06;;;;;;;3.13;1.47;;;;;;;;;;10453020;28;20247;-87
2024/01/27 02:50:09;;;;;;;3.90;2.20;;;;;;;;;;10452153;28;20227;-87
2024/01/27 02:55:12;;;;;;;2.73;1.03;;;;;;;;;;10452938;28;20262;-86
2024/01/27 03:00:15;;;;;;;4.50;1.40;;;;;;;;;;10451576;28;20222;-86
2024/01/27 03:05:17;;;;;;;6.03;1.23;;;;;;;;;;10451376;28;20308;-87
2024/01/27 03:10:21;;;;;;;5.70;1.70;;;;;;;;;;10452856;28;20672;-87
2024/01/27 03:15:23;;;;;;;2.20;0.90;;;;;;;;;;10451408;28;20295;-86
2024/01/27 03:20:27;;;;;;;4.00;1.23;;;;;;;;;;10451740;28;20284;-88
2024/01/27 03:25:30;;;;;;;3.63;0.80;;;;;;;;;;10451647;28;20907;-87
2024/01/27 03:30:33;;;;;;;5.20;1.87;;;;;;;;;;10433969;28;20713;-86
2024/01/27 03:35:36;;;;;;;2.83;1.03;;;;;;;;;;10449967;28;20258;-87
2024/01/27 03:40:38;;;;;;;4.07;1.20;;;;;;;;;;10452513;28;20633;-86
2024/01/27 03:45:41;;;;;;;10.27;1.63;;;;;;;;;;10450246;28;20262;-86
2024/01/27 03:50:44;;;;;;;3.53;1.40;;;;;;;;;;10450402;28;20202;-87
2024/01/27 03:55:47;;;;;;;11.23;1.33;;;;;;;;;;10449421;28;20229;-87
2024/01/27 04:00:50;;;;;;;2.70;1.33;;;;;;;;;;10450624;28;20315;-85
2024/01/27 04:05:53;;;;;;;1.80;0.83;;;;;;;;;;10449071;28;20250;-87
2024/01/27 04:10:55;;;;;;;2.37;0.60;;;;;;;;;;10450166;28;20203;-86
2024/01/27 04:16:01;;;;;;;5.53;1.67;;;;;;;;;;10450011;28;20280;-88
2024/01/27 04:21:04;;;;;;;8.70;1.73;;;;;;;;;;10449899;28;20294;-87
2024/01/27 04:26:09;;;;;;;2.83;0.93;;;;;;;;;;10448221;28;20927;-87
2024/01/27 04:31:12;;;;;;;4.67;1.53;;;;;;;;;;10448738;28;20684;-86
2024/01/27 04:36:15;;;;;;;1.93;0.53;;;;;;;;;;10448829;28;20262;-87
2024/01/27 04:41:18;;;;;;;9.13;1.37;;;;;;;;;;10450226;28;20242;-87
2024/01/27 04:46:22;;;;;;;5.23;1.77;;;;;;;;;;10448448;28;20250;-87
2024/01/27 04:51:25;;;;;;;2.20;0.80;;;;;;;;;;10449565;28;20614;-87
2024/01/27 04:56:28;;;;;;;3.57;1.07;;;;;;;;;;10449300;28;20280;-87
2024/01/27 05:01:32;;;;;;;3.07;1.00;;;;;;;;;;10449459;28;20230;-86
2024/01/27 05:06:35;;;;;;;2.90;0.87;;;;;;;;;;10448887;28;20304;-87
2024/01/27 05:11:38;;;;;;;5.40;0.70;;;;;;;;;;10447797;28;20296;-87
2024/01/27 05:16:41;;;;;;;4.67;0.87;;;;;;;;;;10448962;28;20314;-87
2024/01/27 05:21:44;;;;;;;1.93;0.63;;;;;;;;;;10448786;28;20258;-86
2024/01/27 05:26:47;;;;;;;3.50;0.80;;;;;;;;;;10447548;28;20250;-87
2024/01/27 05:31:50;;;;;;;4.90;1.50;;;;;;;;;;10447938;28;20222;-87
2024/01/27 05:36:53;;;;;;;8.70;1.50;;;;;;;;;;10432075;28;20259;-86
2024/01/27 05:41:56;;;;;;;3.07;1.30;;;;;;;;;;10454728;28;20268;-87
2024/01/27 05:46:59;;;;;;;2.17;0.80;;;;;;;;;;10455469;28;20784;-86
2024/01/27 05:52:02;;;;;;;2.90;0.80;;;;;;;;;;10454615;28;20230;-86
2024/01/27 05:57:05;;;;;;;4.80;1.03;;;;;;;;;;10454516;28;20235;-88
2024/01/27 06:02:08;;;;;;;4.07;1.33;;;;;;;;;;10454901;28;21070;-86
2024/01/27 06:07:11;;;;;;;6.80;1.53;;;;;;;;;;10454765;28;20642;-87
2024/01/27 06:12:15;;;;;;;4.37;0.90;;;;;;;;;;10413786;28;20254;-86
2024/01/27 06:17:18;;;;;;;3.63;1.50;;;;;;;;;;10415665;28;20250;-87
2024/01/27 06:22:21;;;;;;;6.83;1.67;;;;;;;;;;10453391;28;20227;-87
2024/01/27 06:27:23;;;;;;;7.23;1.33;;;;;;;;;;10454248;28;20250;-87
2024/01/27 06:32:26;;;;;;;4.07;1.73;;;;;;;;;;10453959;28;20276;-86
2024/01/27 06:37:29;;;;;;;5.00;1.73;;;;;;;;;;10452776;28;20734;-86
2024/01/27 06:42:32;;;;;;;4.43;1.20;;;;;;;;;;10454158;28;20324;-85
2024/01/27 06:47:35;;;;;;;5.40;1.27;;;;;;;;;;10452930;28;20250;-87
2024/01/27 06:52:38;;;;;;;2.40;1.10;;;;;;;;;;10453158;28;20226;-87
2024/01/27 06:57:41;;;;;;;9.27;1.70;;;;;;;;;;10452335;28;20249;-87
2024/01/27 07:02:44;;;;;;;2.13;0.73;;;;;;;;;;10451999;28;20284;-87
2024/01/27 07:07:47;;;;;;;6.20;1.43;;;;;;;;;;10452454;28;20258;-88
2024/01/27 07:12:49;;;;;;;2.57;1.33;;;;;;;;;;10452947;28;20288;-87
2024/01/27 07:17:53;;;;;;;5.03;1.80;;;;;;;;;;10452419;28;20227;-87
2024/01/27 07:22:56;;;;;;;5.60;1.80;;;;;;;;;;10450868;28;20628;-87
2024/01/27 07:27:59;;;;;;;8.77;1.53;;;;;;;;;;10451797;28;20637;-87
2024/01/27 07:33:02;;;;;;;3.70;1.23;;;;;;;;;;10451077;28;20235;-87
2024/01/27 07:38:05;;;;;;;2.83;1.30;;;;;;;;;;10451140;28;20266;-87
2024/01/27 07:43:08;;;;;;;5.70;1.60;;;;;;;;;;10451130;28;20607;-86
2024/01/27 07:48:10;;;;;;;5.60;1.17;;;;;;;;;;10449591;28;20262;-87
2024/01/27 07:53:13;;;;;;;4.07;1.40;;;;;;;;;;10448930;28;20250;-86
2024/01/27 07:58:16;;;;;;;5.57;1.23;;;;;;;;;;10450702;28;20235;-87
2024/01/27 08:03:19;;;;;;;4.17;1.73;;;;;;;;;;10451355;28;20230;-87
2024/01/27 08:08:22;;;;;;;8.33;1.97;;;;;;;;;;10450075;28;20308;-86
2024/01/27 08:13:24;;;;;;;9.63;1.87;;;;;;;;;;10433226;28;20199;-87
2024/01/27 08:18:27;;;;;;;7.87;1.63;;;;;;;;;;10448399;28;20230;-87
2024/01/27 08:23:30;;;;;;;6.13;1.90;;;;;;;;;;10450824;28;20231;-88
2024/01/27 08:28:33;;;;;;;1.57;0.90;;;;;;;;;;10447829;28;20292;-87
2024/01/27 08:33:36;;;;;;;13.53;1.90;;;;;;;;;;10450432;28;20801;-87
2024/01/27 08:38:39;;;;;;;5.30;1.07;;;;;;;;;;10450586;28;20242;-88
2024/01/27 08:43:41;;;;;;;2.90;0.80;;;;;;;;;;10449857;28;20239;-88
2024/01/27 08:48:44;;;;;;;3.33;1.70;;;;;;;;;;10450083;28;20308;-87
2024/01/27 08:53:50;;;;;;;7.93;2.20;;;;;;;;;;10449063;28;20230;-86
2024/01/27 08:58:53;;;;;;;2.57;1.10;;;;;;;;;;10447652;28;20755;-88
2024/01/27 09:03:56;;;;;;;6.07;1.43;;;;;;;;;;10449263;28;20284;-88
2024/01/27 09:08:59;;;;;;;2.33;1.13;;;;;;;;;;10448432;28;20251;-88
2024/01/27 09:14:03;;;;;;;5.90;1.77;;;;;;;;;;10452163;28;20238;-87
2024/01/27 09:19:06;;;;;;;4.67;1.03;;;;;;;;;;10454241;28;20284;-87
2024/01/27 09:24:09;;;;;;;3.47;1.47;;;;;;;;;;10454512;28;20207;-87
2024/01/27 09:29:15;;;;;;;7.80;2.00;;;;;;;;;;10455834;28;20247;-88
2024/01/27 09:34:18;;;;;;;2.50;1.73;;;;;;;;;;10454160;28;20254;-87
2024/01/27 09:39:21;;;;;;;3.50;1.53;;;;;;;;;;10455849;28;20203;-86
2024/01/27 09:44:25;;;;;;;9.63;2.30;;;;;;;;;;10454744;28;20261;-88
2024/01/27 09:49:28;;;;;;;14.57;4.17;;;;;;;;;;10453526;28;20254;-86
2024/01/27 09:54:31;;;;;;;3.27;0.90;;;;;;;;;;10455355;28;20227;-86
2024/01/27 09:59:35;;;;;;;3.80;1.10;;;;;;;;;;10455227;28;20238;-86
2024/01/27 10:04:39;;;;;;;2.87;1.27;;;;;;;;;;10455196;28;20230;-88
2024/01/27 10:09:43;;;;;;;5.40;1.43;;;;;;;;;;10454521;28;20251;-86
2024/01/27 10:14:48;;;;;;;4.13;1.10;;;;;;;;;;10454767;28;20227;-89
2024/01/27 10:20:01;;;;;;;10.33;3.27;;;;;;;;;;10454824;28;20276;-88
2024/01/27 10:25:04;;;;;;;5.30;1.23;;;;;;;;;;10436100;28;20641;-90
2024/01/27 10:30:15;;;;;;;5.73;2.20;;;;;;;;;;10453945;28;20222;-88
2024/01/27 10:35:18;;;;;;;8.00;1.67;;;;;;;;;;10452358;28;20226;-89
2024/01/27 10:40:21;;;;;;;4.33;1.43;;;;;;;;;;10452074;28;20261;-88
2024/01/27 10:45:24;;;;;;;6.60;2.60;;;;;;;;;;10453450;28;20285;-87
2024/01/27 10:50:27;;;;;;;2.63;0.97;;;;;;;;;;10453701;28;20231;-91
2024/01/27 10:55:30;;;;;;;1.60;0.77;;;;;;;;;;10453115;28;20292;-87
2024/01/27 11:00:33;;;;;;;3.83;2.53;;;;;;;;;;10453639;28;20235;-90
2024/01/27 11:05:36;;;;;;;2.47;1.27;;;;;;;;;;10453717;28;20250;-87
2024/01/27 11:10:39;;;;;;;6.80;1.80;;;;;;;;;;10453282;28;20287;-88
2024/01/27 11:15:51;;;;;;;4.77;1.43;;;;;;;;;;10101948;28;10000297;-89
2024/01/27 11:20:59;;;;;;;6.40;1.80;;;;;;;;;;10451038;28;20231;-86
2024/01/27 11:26:05;;;;;;;2.80;1.00;;;;;;;;;;10442108;28;20246;-87
2024/01/27 11:31:09;;;;;;;5.17;1.07;;;;;;;;;;10451499;28;20296;-87
2024/01/27 11:36:22;;;;;;;2.53;1.17;;;;;;;;;;10450718;28;20323;-87
2024/01/27 11:41:27;;;;;;;5.87;1.77;;;;;;;;;;10449081;28;20688;-84
2024/01/27 11:46:31;;;;;;;9.73;1.60;;;;;;;;;;10450726;28;20311;-85
2024/01/27 11:51:33;;;;;;;3.90;1.50;;;;;;;;;;10449757;28;20226;-85
2024/01/27 11:56:36;;;;;;;3.30;1.27;;;;;;;;;;10449510;28;20234;-86
2024/01/27 12:01:39;;;;;;;3.23;1.57;;;;;;;;;;10449999;28;20661;-86
2024/01/27 12:06:43;;;;;;;5.53;1.57;;;;;;;;;;10449803;28;20250;-85
2024/01/27 12:11:46;;;;;;;4.43;0.90;;;;;;;;;;10450609;28;20199;-85
2024/01/27 12:16:49;;;;;;;7.40;1.97;;;;;;;;;;10448297;28;20230;-87
2024/01/27 12:21:53;;;;;;;6.40;1.67;;;;;;;;;;10450790;28;20234;-87
2024/01/27 12:26:59;;;;;;;7.53;2.70;;;;;;;;;;10452156;28;20253;-86
2024/01/27 12:32:02;;;;;;;12.10;3.97;;;;;;;;;;10450421;28;20206;-86
2024/01/27 12:37:05;;;;;;;7.93;1.60;;;;;;;;;;10433381;28;20227;-86
2024/01/27 12:42:08;;;;;;;4.73;1.73;;;;;;;;;;10449965;28;20207;-87
2024/01/27 12:47:11;;;;;;;7.73;1.47;;;;;;;;;;10450760;28;20671;-88
2024/01/27 12:52:14;;;;;;;4.23;1.37;;;;;;;;;;10459295;28;20636;-87
2024/01/27 12:57:18;;;;;;;11.57;2.77;;;;;;;;;;10458502;28;20198;-88
2024/01/27 13:02:20;;;;;;;4.13;0.80;;;;;;;;;;10456566;28;20677;-88
2024/01/27 13:07:23;;;;;;;17.70;1.07;;;;;;;;;;10459055;28;20311;-90
2024/01/27 13:12:26;;;;;;;1.97;1.00;;;;;;;;;;10462505;28;20256;-89
2024/01/27 13:17:29;;;;;;;9.07;2.77;;;;;;;;;;10467875;28;20261;-86
2024/01/27 13:22:32;;;;;;;5.77;2.70;;;;;;;;;;10467100;28;20245;-89
2024/01/27 13:27:35;;;;;;;7.03;1.77;;;;;;;;;;10468418;28;20223;-86
2024/01/27 13:32:39;;;;;;;9.03;2.70;;;;;;;;;;10466541;28;20195;-87
2024/01/27 13:37:42;;;;;;;7.27;2.30;;;;;;;;;;10467967;28;20638;-90
2024/01/27 13:42:45;;;;;;;4.20;2.00;;;;;;;;;;10469476;28;20207;-88
2024/01/27 13:47:47;;;;;;;7.30;2.40;;;;;;;;;;10467895;28;20269;-88
2024/01/27 13:52:50;;;;;;;11.17;3.17;;;;;;;;;;10467432;28;20203;-88
2024/01/27 13:57:53;;;;;;;4.13;1.87;;;;;;;;;;10469341;28;20212;-88
2024/01/27 14:02:56;;;;;;;2.83;1.97;;;;;;;;;;10470978;28;20249;-89
2024/01/27 14:07:59;;;;;;;6.23;2.20;;;;;;;;;;10471985;28;20578;-89
2024/01/27 14:13:04;;;;;;;2.40;1.07;;;;;;;;;;10468772;28;20199;-82
2024/01/27 14:18:09;;;;;;;37.63;5.20;;;;;;;;;;10450110;28;20267;-83
2024/01/27 14:23:12;;;;;;;10.60;4.13;;;;;;;;;;10445994;28;20448;-85
2024/01/27 14:28:15;;;;;;;12.07;3.97;;;7.70;99.90;;;;;;10457073;28;20215;-84
2024/01/27 14:33:20;;;;;;;13.77;4.73;;;;;;;;;;10456741;28;20199;-83
2024/01/27 14:38:26;;;;;;;14.17;4.83;;;;;;;;;;10456595;28;20613;-84
2024/01/27 14:43:29;;;;;;;16.53;5.27;;;;;;;;;;10456191;28;20268;-85
2024/01/27 14:48:32;;;;;;;16.87;5.27;;;;;;;;;;10455563;28;20288;-83
2024/01/27 14:53:36;;;;;;;18.53;5.23;;;;;;;;;;10454866;28;20643;-85
2024/01/27 14:58:39;;;;;;;13.13;4.43;;;;;;;;;;10455268;28;20207;-84
2024/01/27 15:03:42;;;;;;;11.93;3.83;;;;;;;;;;10455185;28;20575;-85
2024/01/27 15:08:45;;;;;;;14.90;4.57;;;;;;;;;;10454065;28;20254;-84
2024/01/27 15:13:48;;;;;;;23.07;5.20;;;;;;;;;;10456571;28;20195;-87
2024/01/27 15:18:51;;;;;;;17.90;5.47;;;;;;;;;;10455458;28;20191;-86
2024/01/27 15:23:54;;;;;;;18.07;6.20;;;;;;;;;;10455650;28;20207;-87
2024/01/27 15:28:57;;;;;;;23.60;6.43;;;;;;;;;;10456429;28;20276;-87
2024/01/27 15:34:01;;;;;;;17.67;5.00;;;;;;;;;;10088790;28;10000227;-86
2024/01/27 15:39:04;;;;;;;16.77;6.43;;;;;;;;;;10412154;28;20242;-85
2024/01/27 15:44:07;;;;;;;12.60;4.40;;;;;;;;;;10412188;28;20207;-85
2024/01/27 15:49:10;;;;;;;13.20;3.93;;;;;;;;;;10437243;28;20254;-84
2024/01/27 15:54:14;;;;;;;12.73;3.53;;;;;;;;;;10449770;28;20233;-85
2024/01/27 15:59:17;;;;;;;14.13;5.63;;;;;;;;;;10449138;28;20230;-85
2024/01/27 16:04:20;;;;;;;10.93;4.47;;;;;;;;;;10449942;28;20226;-85
2024/01/27 16:09:22;;;;;;;9.27;3.27;;;;;;;;;;10448624;28;20246;-85
2024/01/27 16:14:25;;;;;;;13.67;4.30;;;;;;;;;;10449436;28;20275;-87
2024/01/27 16:19:28;;;;;;;8.00;3.30;;;10.20;99.90;;;;;;10451818;28;20202;-85
2024/01/27 16:24:31;;;;;;;6.97;3.57;;;10.50;99.90;;;;;;10450210;28;20238;-85
2024/01/27 16:29:34;;;;;;;13.60;3.90;;;10.60;99.90;;;;;;10448346;28;20709;-86
2024/01/27 16:34:37;;;;;;;11.60;4.20;;;10.70;99.90;;;;;;10450385;28;20239;-86
2024/01/27 16:39:40;;;;;;;10.27;3.47;;;10.40;99.90;;;;;;10450352;28;20261;-86
2024/01/27 16:44:43;;;;;;;12.03;4.10;;;10.10;99.90;;;;;;10449060;28;20688;-86
2024/01/27 16:49:45;;;;;;;13.30;4.53;;;8.10;99.90;;;;;;10472489;28;20249;-85
2024/01/27 16:54:48;;;;;;;14.17;5.53;;;6.50;99.90;;;;;;10502213;28;20207;-86
2024/01/27 16:59:52;;;;;;;13.53;4.77;;;6.10;99.90;;;;;;10497961;28;20213;-87
2024/01/27 17:05:01;;;;;;;17.03;5.27;;;5.60;99.90;;;;;;10479212;28;20195;-86
2024/01/27 17:10:04;;;;;;;17.80;5.03;;;5.50;99.90;;;;;;10469322;28;20268;-87
2024/01/27 17:15:08;;;;;;;21.00;9.10;;;5.30;99.90;;;;;;10462188;28;20829;-87
2024/01/27 17:20:13;;;;;;;17.57;7.40;;;5.00;99.90;;;;;;10471407;28;20207;-85
2024/01/27 17:25:15;;;;;;;9.70;4.80;;;4.80;99.90;;;;;;10474566;28;20234;-85
2024/01/27 17:30:18;;;;;;;17.53;7.07;;;5.00;99.90;;;;;;10475251;28;20241;-83
2024/01/27 17:35:21;;;;;;;16.53;5.83;;;5.00;99.90;;;;;;10498876;28;20219;-88
2024/01/27 17:40:24;;;;;;;13.97;4.70;;;5.00;99.90;;;;;;10496942;28;20250;-87
2024/01/27 17:45:27;;;;;;;21.33;5.30;;;5.30;99.90;;;;;;10468039;28;20200;-84
2024/01/27 17:50:29;;;;;;;12.77;5.40;;;5.00;99.90;;;;;;10481666;28;20561;-83
2024/01/27 17:55:32;;;;;;;15.20;5.30;;;5.30;99.90;;;;;;10489886;28;20195;-85
2024/01/27 18:00:35;;;;;;;23.03;12.13;;;5.20;99.90;;;;;;10491687;28;20217;-83
2024/01/27 18:05:38;;;;;;;26.13;14.40;;;5.30;99.90;;;;;;10488714;23;20254;-85
2024/01/27 18:10:41;;;;;;;24.47;11.60;;;5.50;99.90;;;;;;10464931;28;20219;-87
2024/01/27 18:15:43;;;;;;;18.00;7.23;;;5.50;99.90;;;;;;10464382;28;20223;-85
2024/01/27 18:20:48;;;;;;;13.80;6.13;;;;;;;;;;10467134;28;20261;-89
2024/01/27 18:25:51;;;;;;;12.90;5.13;;;;;;;;;;10477565;28;20203;-86
2024/01/27 18:30:54;;;;;;;40.80;17.37;;;;;;;;;;10467003;28;20618;-89
2024/01/27 18:35:57;;;;;;;49.20;13.20;;;;;;;;;;10465202;28;20195;-87
2024/01/27 18:41:00;;;;;;;15.07;5.90;;;;;;;;;;10459679;28;20207;-85
2024/01/27 18:46:07;;;;;;;20.33;7.60;;;;;;;;;;10466898;28;20561;-82
2024/01/27 18:51:10;;;;;;;22.07;6.20;;;;;;;;;;10464182;28;20223;-82
2024/01/27 18:56:14;;;;;;;31.83;8.07;;;;;;;;;;10456317;28;20276;-82
2024/01/27 19:01:17;;;;;;;19.67;6.83;;;;;;;;;;10459842;28;20215;-81
2024/01/27 19:06:20;;;;;;;30.53;9.27;;;;;;;;;;10455578;28;20238;-84
2024/01/27 19:11:23;;;;;;;33.37;8.43;;;;;;;;;;10458613;28;20223;-85
2024/01/27 19:16:26;;;;;;;22.00;8.03;;;;;;;;;;10456724;28;20260;-86
2024/01/27 19:21:29;;;;;;;27.10;10.20;;;;;;;;;;10458440;28;20245;-85
2024/01/27 19:26:31;;;;;;;20.33;4.87;;;;;;;;;;10456454;28;20215;-84
2024/01/27 19:31:36;;;;;;;41.50;10.83;;;;;;;;;;10454245;28;20639;-86
2024/01/27 19:36:39;;;;;;;34.17;10.90;;;;;;;;;;10460385;28;20203;-88
2024/01/27 19:41:42;;;;;;;30.53;8.47;;;;;;;;;;10484345;28;20986;-87
2024/01/27 19:46:49;;;;;;;28.93;10.60;;;;;;;;;;10503665;28;20179;-86
2024/01/27 19:51:52;;;;;;;63.63;25.50;;;;;;;;;;10495837;28;20245;-85
2024/01/27 19:56:55;;;;;;;28.23;13.27;;;;;;;;;;10458374;28;20630;-84
2024/01/27 20:01:59;;;;;;;24.57;9.63;;;;;;;;;;10449789;28;20273;-84
2024/01/27 20:07:02;;;;;;;33.90;10.50;;;;;;;;;;10450457;28;20813;-84
2024/01/27 20:12:05;;;;;;;25.97;8.77;;;;;;;;;;10450180;28;20278;-84
2024/01/27 20:17:08;;;;;;;26.13;10.10;;;;;;;;;;10453673;28;20207;-84
2024/01/27 20:22:10;;;;;;;23.60;8.53;;;8.30;99.90;;;;;;10453456;28;20193;-85
2024/01/27 20:27:13;;;;;;;21.13;8.43;;;7.90;99.90;;;;;;10448833;28;20267;-85
2024/01/27 20:32:15;;;;;;;24.47;8.17;;;6.40;99.90;;;;;;10449463;28;20700;-86
2024/01/27 20:37:18;;;;;;;26.33;8.70;;;5.90;99.90;;;;;;10449209;28;20223;-85
2024/01/27 20:42:20;;;;;;;23.60;8.80;;;5.70;99.90;;;;;;10447374;28;20218;-86
2024/01/27 20:47:23;;;;;;;33.60;12.93;;;5.60;99.90;;;;;;10449256;28;20230;-86
2024/01/27 20:52:26;;;;;;;27.73;8.13;;;5.50;99.90;;;;;;10096678;28;10000063;-86
2024/01/27 20:57:28;;;;;;;31.37;12.23;;;5.50;99.90;;;;;;10449812;28;20199;-86
2024/01/27 21:02:31;;;;;;;21.60;9.27;;;5.50;99.90;;;;;;10448702;28;20292;-86
2024/01/27 21:07:33;;;;;;;34.63;13.17;;;5.50;99.90;;;;;;10449584;28;20262;-86
2024/01/27 21:12:36;;;;;;;25.80;8.50;;;5.50;99.90;;;;;;10457359;28;20765;-86
2024/01/27 21:17:42;;;;;;;33.77;10.00;;;5.40;99.90;;;;;;10458361;28;20198;-86
2024/01/27 21:22:45;;;;;;;22.93;8.60;;;5.40;99.90;;;;;;10455136;28;20238;-86
2024/01/27 21:27:48;;;;;;;18.97;8.37;;;5.40;99.90;;;;;;10454820;28;20195;-86
2024/01/27 21:32:50;;;;;;;19.23;6.67;;;5.60;99.90;;;;;;10454195;28;20227;-85
2024/01/27 21:37:55;;;;;;;19.30;6.80;;;6.30;99.90;;;;;;10455178;28;20637;-85
2024/01/27 21:42:57;;;;;;;19.67;6.63;;;6.90;99.90;;;;;;10455698;28;20226;-86
2024/01/27 21:48:05;;;;;;;15.27;5.73;;;7.40;99.90;;;;;;10457051;28;20211;-86
2024/01/27 21:53:08;;;;;;;28.00;10.83;;;7.80;99.90;;;;;;10456245;28;20280;-86
2024/01/27 21:58:11;;;;;;;18.73;7.00;;;8.30;99.90;;;;;;10455487;28;20225;-86
2024/01/27 22:03:15;;;;;;;20.57;7.27;;;8.50;99.90;;;;;;10457137;28;20201;-86
2024/01/27 22:08:18;;;;;;;17.50;8.03;;;8.60;99.90;;;;;;10455014;28;20316;-86
2024/01/27 22:13:20;;;;;;;17.20;6.70;;;9.10;99.90;;;;;;10454650;28;20230;-86
2024/01/27 22:18:23;;;;;;;21.80;6.80;;;9.50;99.90;;;;;;10453989;28;20199;-86
2024/01/27 22:23:26;;;;;;;12.70;5.93;;;10.10;99.90;;;;;;10454248;28;20211;-86
2024/01/27 22:28:30;;;;;;;17.37;6.17;;;10.10;99.90;;;;;;10453919;28;20250;-86
2024/01/27 22:33:33;;;;;;;15.33;5.87;;;10.20;99.90;;;;;;10451200;28;20276;-85
2024/01/27 22:38:38;;;;;;;14.80;4.43;;;11.10;99.90;;;;;;10451755;28;20292;-85
2024/01/27 22:43:41;;;;;;;12.53;5.53;;;;;;;;;;10449868;28;20234;-85
2024/01/27 22:48:46;;;;;;;11.00;4.83;;;;;;;;;;10452869;28;20250;-86
2024/01/27 22:53:49;;;;;;;13.73;5.50;;;;;;;;;;10452106;28;20231;-85
2024/01/27 22:58:52;;;;;;;16.70;5.17;;;11.50;99.90;;;;;;10452209;28;20226;-85
2024/01/27 23:03:57;;;;;;;18.33;6.40;;;;;;;;;;10451811;28;20560;-85
2024/01/27 23:09:00;;;;;;;16.53;4.67;;;12.10;99.90;;;;;;10448990;28;20262;-85
2024/01/27 23:14:03;;;;;;;11.50;5.40;;;12.30;99.90;;;;;;10450109;28;20234;-85
2024/01/27 23:19:12;;;;;;;15.27;4.43;;;12.30;99.90;;;;;;10449708;28;20234;-84
2024/01/27 23:24:15;;;;;;;15.40;5.13;;;12.20;99.90;;;;;;10449871;28;20235;-86
2024/01/27 23:29:18;;;;;;;9.83;4.60;;;12.10;99.90;;;;;;10447711;28;20250;-86
2024/01/27 23:34:20;;;;;;;11.60;5.57;;;12.40;99.90;;;;;;10446847;28;20253;-85
2024/01/27 23:39:23;;;;;;;18.97;7.13;;;12.90;99.90;;;;;;10463831;28;20816;-86
2024/01/27 23:44:26;;;;;;;17.30;6.33;;;12.80;99.90;;;;;;10440733;28;20249;-87
2024/01/27 23:49:28;;;;;;;19.37;8.73;;;12.60;99.90;;;;;;10447426;28;20707;-87
2024/01/27 23:54:31;;;;;;;13.27;5.57;;;12.60;99.90;;;;;;10450220;28;20308;-87
2024/01/27 23:59:34;;;;;;;15.50;5.70;;;12.70;99.90;;;;;;10447646;28;20230;-87
